createdAt,value
2023-02-19T07:32:36.380Z,95.15
2023-02-19T07:35:02.931Z,94.74
2023-02-19T07:37:29.432Z,94.66
2023-02-19T07:39:56.007Z,95.11
2023-02-19T07:42:22.519Z,95.49
2023-02-19T07:45:06.875Z,95.88
2023-02-19T07:47:33.380Z,95.46
2023-02-19T07:49:59.908Z,95.66
2023-02-19T07:52:26.956Z,95.49
2023-02-19T07:54:53.472Z,95.92
2023-02-19T07:57:19.986Z,95.63
2023-02-19T07:59:46.528Z,95.49
2023-02-19T08:02:38.092Z,95.11
2023-02-19T08:05:05.856Z,95.17
2023-02-19T08:07:34.412Z,95.48
2023-02-19T08:10:21.795Z,95.65
2023-02-19T08:13:20.104Z,96.16
2023-02-19T08:15:47.215Z,96.73
2023-02-19T08:18:15.286Z,96.69
2023-02-19T08:20:42.941Z,96.54
2023-02-19T08:23:10.385Z,96.40
2023-02-19T08:25:36.952Z,96.40
2023-02-19T08:28:04.028Z,96.16
2023-02-19T08:30:33.070Z,95.90
2023-02-19T08:33:02.272Z,95.82
2023-02-19T08:35:29.489Z,96.09
2023-02-19T08:37:59.460Z,96.15
2023-02-19T08:40:26.558Z,96.28
2023-02-19T08:42:53.492Z,96.47
2023-02-19T08:45:20.464Z,96.73
2023-02-19T08:47:47.192Z,96.79
2023-02-19T08:50:13.864Z,96.60
2023-02-19T08:52:40.445Z,96.23
2023-02-19T08:55:07.387Z,96.07
2023-02-19T08:57:37.624Z,95.61
2023-02-19T09:00:06.275Z,95.15
2023-02-19T09:02:33.229Z,95.03
2023-02-19T09:04:59.802Z,94.72
2023-02-19T09:07:26.535Z,94.44
2023-02-19T09:09:53.139Z,94.42
2023-02-19T09:12:19.971Z,93.94
2023-02-19T09:14:46.751Z,93.47
2023-02-19T09:17:13.316Z,93.04
2023-02-19T09:19:39.890Z,92.31
2023-02-19T09:22:06.737Z,92.44
2023-02-19T09:24:33.355Z,92.43
2023-02-19T09:26:59.919Z,92.10
2023-02-19T09:29:28.226Z,92.06
2023-02-19T09:31:59.220Z,91.48
2023-02-19T09:34:27.836Z,91.30
2023-02-19T09:36:55.426Z,91.61
2023-02-19T09:39:21.948Z,92.13
2023-02-19T09:41:59.088Z,91.42
2023-02-19T09:44:28.544Z,91.26
2023-02-19T09:46:56.131Z,91.05
2023-02-19T09:49:50.235Z,90.37
2023-02-19T09:52:24.915Z,89.57
2023-02-19T09:54:57.625Z,89.29
2023-02-19T09:57:25.920Z,89.32
2023-02-19T10:00:00.326Z,88.45
2023-02-19T10:02:27.777Z,89.05
2023-02-19T10:04:54.584Z,88.15
2023-02-19T10:07:43.933Z,88.79
2023-02-19T10:10:13.582Z,89.33
2023-02-19T10:12:50.556Z,89.38
2023-02-19T10:15:18.871Z,85.92
2023-02-19T10:17:45.469Z,84.38
2023-02-19T10:20:18.511Z,84.72
2023-02-19T10:22:45.647Z,83.52
2023-02-19T10:25:16.788Z,83.00
2023-02-19T10:27:44.186Z,83.21
2023-02-19T10:30:22.098Z,85.20
2023-02-19T10:33:00.329Z,85.20
2023-02-19T10:35:27.108Z,86.11
2023-02-19T10:37:53.911Z,86.50
2023-02-19T10:40:23.461Z,86.63
2023-02-19T10:43:02.821Z,85.92
2023-02-19T10:45:40.839Z,86.51
2023-02-19T10:48:37.491Z,86.26
2023-02-19T10:51:11.497Z,85.87
2023-02-19T10:53:41.063Z,85.62
2023-02-19T10:56:25.779Z,86.02
2023-02-19T10:58:52.467Z,85.83
2023-02-19T11:01:24.062Z,86.17
2023-02-19T11:03:53.191Z,85.94
2023-02-19T11:06:25.868Z,85.65
2023-02-19T11:08:55.165Z,85.69
2023-02-19T11:11:36.671Z,85.51
2023-02-19T11:14:15.754Z,86.22
2023-02-19T11:16:46.496Z,86.04
2023-02-19T11:19:25.728Z,85.97
2023-02-19T11:21:52.982Z,85.96
2023-02-19T11:24:31.063Z,85.37
2023-02-19T11:26:58.539Z,85.42
2023-02-19T11:29:28.621Z,85.26
2023-02-19T11:31:56.386Z,85.23
2023-02-19T11:34:31.158Z,85.38
2023-02-19T11:37:18.588Z,85.63
2023-02-19T11:39:48.008Z,86.58
2023-02-19T11:42:44.638Z,86.68
2023-02-19T11:45:36.755Z,86.90
2023-02-19T11:48:31.450Z,86.66
2023-02-19T11:51:07.004Z,86.28
2023-02-19T11:53:37.274Z,86.61
2023-02-19T11:56:40.851Z,86.66
2023-02-19T11:59:27.644Z,86.64
2023-02-19T12:02:19.896Z,86.71
2023-02-19T12:05:13.127Z,86.54
2023-02-19T12:07:57.942Z,86.80
2023-02-19T12:10:53.560Z,87.10
2023-02-19T12:13:44.939Z,86.59
2023-02-19T12:16:33.440Z,85.95
2023-02-19T12:19:00.038Z,85.71
2023-02-19T12:21:39.128Z,85.98
2023-02-19T12:24:16.882Z,85.17
2023-02-19T12:26:52.359Z,85.03
2023-02-19T12:29:31.150Z,85.05
2023-02-19T12:32:23.326Z,85.29
2023-02-19T12:35:11.284Z,85.33
2023-02-19T12:38:00.930Z,84.60
2023-02-19T12:41:01.471Z,84.18
2023-02-19T12:43:31.002Z,83.07
2023-02-19T12:46:20.604Z,83.73
2023-02-19T12:48:57.144Z,83.41
2023-02-19T12:51:57.134Z,83.51
2023-02-19T12:54:28.102Z,84.41
2023-02-19T12:56:54.658Z,84.02
2023-02-19T12:59:35.277Z,83.85
2023-02-19T13:02:22.804Z,83.25
2023-02-19T13:04:59.251Z,83.51
2023-02-19T13:07:45.578Z,84.42
2023-02-19T13:10:36.909Z,83.92
2023-02-19T13:13:12.663Z,84.83
2023-02-19T13:15:45.398Z,85.19
2023-02-19T13:18:41.655Z,85.55
2023-02-19T13:21:09.288Z,86.21
2023-02-19T13:23:56.926Z,86.25
2023-02-19T13:26:26.181Z,87.22
2023-02-19T13:29:10.721Z,88.99
2023-02-19T13:31:56.146Z,90.35
2023-02-19T13:34:44.681Z,90.75
2023-02-19T13:37:11.943Z,91.16
2023-02-19T13:39:48.766Z,90.95
2023-02-19T13:42:27.661Z,90.96
2023-02-19T13:44:57.989Z,90.35
2023-02-19T13:47:57.395Z,89.73
2023-02-19T13:50:27.718Z,90.03
2023-02-19T13:52:56.397Z,90.25
2023-02-19T13:55:46.866Z,90.13
2023-02-19T13:58:50.822Z,89.70
2023-02-19T14:01:51.739Z,90.02
2023-02-19T14:04:26.532Z,89.78
2023-02-19T14:07:24.363Z,90.47
2023-02-19T14:09:50.999Z,90.46
2023-02-19T14:12:17.527Z,90.55
2023-02-19T14:14:54.064Z,89.64
2023-02-19T14:17:35.579Z,89.66
2023-02-19T14:20:23.405Z,89.86
2023-02-19T14:23:01.569Z,90.31
2023-02-19T14:25:30.750Z,89.80
2023-02-19T14:28:06.579Z,89.98
2023-02-19T14:30:35.115Z,90.48
2023-02-19T14:33:10.559Z,89.73
2023-02-19T14:35:41.351Z,89.86
2023-02-19T14:38:22.478Z,89.22
2023-02-19T14:40:50.254Z,88.98
2023-02-19T14:43:20.042Z,88.27
2023-02-19T14:45:54.650Z,88.69
2023-02-19T14:48:27.085Z,89.07
2023-02-19T14:51:00.786Z,88.97
2023-02-19T14:53:29.562Z,89.18
2023-02-19T14:55:58.778Z,90.11
2023-02-19T14:58:31.947Z,89.09
2023-02-19T15:00:58.902Z,89.56
2023-02-19T15:03:27.176Z,89.57
2023-02-19T15:06:01.337Z,89.59
2023-02-19T15:08:34.185Z,89.52
2023-02-19T15:11:02.456Z,90.26
2023-02-19T15:13:30.846Z,89.79
2023-02-19T15:15:58.210Z,90.04
2023-02-19T15:18:26.372Z,90.07
2023-02-19T15:21:03.177Z,90.09
2023-02-19T15:23:32.662Z,89.92
2023-02-19T15:26:00.409Z,89.89
2023-02-19T15:28:32.672Z,90.00
2023-02-19T15:30:59.264Z,89.81
2023-02-19T15:33:28.345Z,89.81
2023-02-19T15:36:05.527Z,89.77
2023-02-19T15:38:33.506Z,90.11
2023-02-19T15:41:00.477Z,90.30
2023-02-19T15:43:40.122Z,90.31
2023-02-19T15:46:16.036Z,90.01
2023-02-19T15:49:01.625Z,90.31
2023-02-19T15:51:44.291Z,90.27
2023-02-19T15:54:26.991Z,90.29
2023-02-19T15:56:57.625Z,90.34
2023-02-19T15:59:30.159Z,90.20
2023-02-19T16:01:57.023Z,89.88
2023-02-19T16:04:23.934Z,89.31
2023-02-19T16:06:52.593Z,89.07
2023-02-19T16:09:21.910Z,88.04
2023-02-19T16:11:52.297Z,87.84
2023-02-19T16:14:27.891Z,87.82
2023-02-19T16:16:57.987Z,87.39
2023-02-19T16:19:29.322Z,87.87
2023-02-19T16:21:56.785Z,87.32
2023-02-19T16:24:31.188Z,87.42
2023-02-19T16:26:58.924Z,87.92
2023-02-19T16:29:30.699Z,87.70
2023-02-19T16:32:03.967Z,87.27
2023-02-19T16:35:00.425Z,87.89
2023-02-19T16:37:37.565Z,87.75
2023-02-19T16:40:14.040Z,87.75
2023-02-19T16:42:44.770Z,88.00
2023-02-19T16:45:11.327Z,88.43
2023-02-19T16:47:41.291Z,88.25
2023-02-19T16:50:14.746Z,87.93
2023-02-19T16:52:59.074Z,88.28
2023-02-19T16:55:26.886Z,87.68
2023-02-19T16:57:53.644Z,87.40
2023-02-19T17:00:25.978Z,87.28
2023-02-19T17:02:55.400Z,86.84
2023-02-19T17:05:23.562Z,87.13
2023-02-19T17:07:50.213Z,87.44
2023-02-19T17:10:24.886Z,86.90
2023-02-19T17:12:52.670Z,87.22
2023-02-19T17:15:19.285Z,87.64
2023-02-19T17:17:45.980Z,87.57
2023-02-19T17:20:27.467Z,87.64
2023-02-19T17:22:55.225Z,87.83
2023-02-19T17:25:22.045Z,88.26
2023-02-19T17:27:48.609Z,88.30
2023-02-19T17:30:34.001Z,88.26
2023-02-19T17:33:00.627Z,89.15
2023-02-19T17:35:27.166Z,89.03
2023-02-19T17:37:53.803Z,89.52
2023-02-19T17:40:33.549Z,90.01
2023-02-19T17:43:00.883Z,90.27
2023-02-19T17:45:27.788Z,90.47
2023-02-19T17:47:54.421Z,90.85
2023-02-19T17:50:24.256Z,90.95
2023-02-19T17:52:50.810Z,91.22
2023-02-19T17:55:18.502Z,91.31
2023-02-19T17:57:46.229Z,91.05
2023-02-19T18:00:26.320Z,91.43
2023-02-19T18:02:53.023Z,91.39
2023-02-19T18:05:20.104Z,91.56
2023-02-19T18:07:47.598Z,91.84
2023-02-19T18:10:16.345Z,92.25
2023-02-19T18:12:43.085Z,92.19
2023-02-19T18:15:14.694Z,92.49
2023-02-19T18:17:41.321Z,92.45
2023-02-19T18:20:08.402Z,91.59
2023-02-19T18:22:35.138Z,91.86
2023-02-19T18:25:01.658Z,91.98
2023-02-19T18:27:28.209Z,92.39
2023-02-19T18:29:56.254Z,92.27
2023-02-19T18:32:24.841Z,92.31
2023-02-19T18:34:56.702Z,92.26
2023-02-19T18:37:25.250Z,92.01
2023-02-19T18:39:53.166Z,91.76
2023-02-19T18:42:21.775Z,91.86
2023-02-19T18:44:49.661Z,91.20
2023-02-19T18:47:17.579Z,91.66
2023-02-19T18:49:51.249Z,91.40
2023-02-19T18:52:22.403Z,91.66
2023-02-19T18:54:50.676Z,91.24
2023-02-19T18:57:19.061Z,91.21
2023-02-19T18:59:45.820Z,91.63
2023-02-19T19:02:13.796Z,91.94
2023-02-19T19:04:41.605Z,92.11
2023-02-19T19:07:09.655Z,92.27
2023-02-19T19:09:36.624Z,92.35
2023-02-19T19:12:04.340Z,92.40
2023-02-19T19:14:30.915Z,92.50
2023-02-19T19:16:57.565Z,92.62
2023-02-19T19:19:24.346Z,92.49
2023-02-19T19:21:53.384Z,92.72
2023-02-19T19:24:21.395Z,92.38
2023-02-19T19:26:49.211Z,92.55
2023-02-19T19:29:18.407Z,92.64
2023-02-19T19:31:45.534Z,92.70
2023-02-19T19:34:12.552Z,93.11
2023-02-19T19:36:39.217Z,92.54
2023-02-19T19:39:06.947Z,92.87
2023-02-19T19:41:33.788Z,93.09
2023-02-19T19:44:07.547Z,93.07
2023-02-19T19:46:34.684Z,93.24
2023-02-19T19:49:01.377Z,93.23
2023-02-19T19:51:32.800Z,93.32
2023-02-19T19:53:59.696Z,93.39
2023-02-19T19:56:26.276Z,93.47
2023-02-19T19:58:52.903Z,93.35
2023-02-19T20:01:23.315Z,93.38
2023-02-19T20:03:51.127Z,93.38
2023-02-19T20:06:30.345Z,93.41
2023-02-19T20:08:57.826Z,93.44
2023-02-19T20:11:24.537Z,93.33
2023-02-19T20:13:51.209Z,93.25
2023-02-19T20:16:24.043Z,93.17
2023-02-19T20:18:50.641Z,93.25
2023-02-19T20:21:17.375Z,93.40
2023-02-19T20:23:43.910Z,93.24
2023-02-19T20:26:10.490Z,92.91
2023-02-19T20:28:37.811Z,92.94
2023-02-19T20:31:04.690Z,93.11
2023-02-19T20:33:31.338Z,93.65
2023-02-19T20:35:58.059Z,93.61
2023-02-19T20:38:24.568Z,93.47
2023-02-19T20:40:51.198Z,93.64
2023-02-19T20:43:17.791Z,93.55
2023-02-19T20:45:46.453Z,93.62
2023-02-19T20:48:15.931Z,93.49
2023-02-19T20:50:42.598Z,93.62
2023-02-19T20:53:10.479Z,94.07
2023-02-19T20:55:37.411Z,94.26
2023-02-19T20:58:04.134Z,94.40
2023-02-19T21:00:30.651Z,94.42
2023-02-19T21:02:57.209Z,94.38
2023-02-19T21:05:25.301Z,94.29
2023-02-19T21:07:51.851Z,94.42
2023-02-19T21:10:18.560Z,94.79
2023-02-19T21:12:45.113Z,95.22
2023-02-19T21:15:11.696Z,95.37
2023-02-19T21:17:38.249Z,94.97
2023-02-19T21:20:05.344Z,94.99
2023-02-19T21:22:31.879Z,94.78
2023-02-19T21:24:58.420Z,94.99
2023-02-19T21:27:25.045Z,94.81
2023-02-19T21:29:51.701Z,94.94
2023-02-19T21:32:19.583Z,94.81
2023-02-19T21:34:46.302Z,94.65
2023-02-19T21:37:12.965Z,94.67
2023-02-19T21:39:39.610Z,94.56
2023-02-19T21:42:06.150Z,94.61
2023-02-19T21:44:32.699Z,94.43
2023-02-19T21:46:59.264Z,94.14
2023-02-19T21:49:25.877Z,94.25
2023-02-19T21:51:53.788Z,94.03
2023-02-19T21:54:26.727Z,93.90
2023-02-19T21:56:54.360Z,93.76
2023-02-19T21:59:21.884Z,93.85
2023-02-19T22:01:50.557Z,93.71
2023-02-19T22:04:19.928Z,93.51
2023-02-19T22:06:47.311Z,93.52
2023-02-19T22:09:14.583Z,93.53
2023-02-19T22:11:41.205Z,93.71
2023-02-19T22:14:08.146Z,93.78
2023-02-19T22:16:34.976Z,94.01
2023-02-19T22:19:01.617Z,94.13
2023-02-19T22:21:32.593Z,94.26
2023-02-19T22:24:00.519Z,93.95
2023-02-19T22:26:30.519Z,94.10
2023-02-19T22:28:59.231Z,94.31
2023-02-19T22:31:27.504Z,94.48
2023-02-19T22:33:56.008Z,94.33
2023-02-19T22:36:25.923Z,94.19
2023-02-19T22:38:52.727Z,94.38
2023-02-19T22:41:20.817Z,93.88
2023-02-19T22:43:47.998Z,93.99
2023-02-19T22:46:17.537Z,93.87
2023-02-19T22:48:44.487Z,94.06
2023-02-19T22:51:13.202Z,94.06
2023-02-19T22:53:48.620Z,94.03
2023-02-19T22:56:16.952Z,93.77
2023-02-19T22:58:44.012Z,93.64
